sensor_id;sensor_type;location;lat;lon;timestamp;temperature;humidity
4406;DHT22;2216;53.806;11.598;2023-05-07T00:01:43;9.20;77.70
4406;DHT22;2216;53.806;11.598;2023-05-07T00:04:09;9.20;77.30
4406;DHT22;2216;53.806;11.598;2023-05-07T00:06:35;9.20;77.30
4406;DHT22;2216;53.806;11.598;2023-05-07T00:09:00;9.20;77.40
4406;DHT22;2216;53.806;11.598;2023-05-07T00:11:27;9.20;77.30
4406;DHT22;2216;53.806;11.598;2023-05-07T00:13:53;9.20;77.20
4406;DHT22;2216;53.806;11.598;2023-05-07T00:16:19;9.20;77.20
4406;DHT22;2216;53.806;11.598;2023-05-07T00:18:45;9.20;77.10
4406;DHT22;2216;53.806;11.598;2023-05-07T00:21:11;9.20;77.20
4406;DHT22;2216;53.806;11.598;2023-05-07T00:23:36;9.20;77.20
4406;DHT22;2216;53.806;11.598;2023-05-07T00:26:03;9.20;77.30
4406;DHT22;2216;53.806;11.598;2023-05-07T00:28:29;9.20;77.20
4406;DHT22;2216;53.806;11.598;2023-05-07T00:30:54;9.20;77.00
4406;DHT22;2216;53.806;11.598;2023-05-07T00:33:20;9.20;77.20
4406;DHT22;2216;53.806;11.598;2023-05-07T00:35:46;9.20;77.10
4406;DHT22;2216;53.806;11.598;2023-05-07T00:38:12;9.20;77.20
4406;DHT22;2216;53.806;11.598;2023-05-07T00:40:37;9.20;77.10
4406;DHT22;2216;53.806;11.598;2023-05-07T00:43:03;9.20;77.10
4406;DHT22;2216;53.806;11.598;2023-05-07T00:45:29;9.20;77.50
4406;DHT22;2216;53.806;11.598;2023-05-07T00:47:56;9.20;77.20
4406;DHT22;2216;53.806;11.598;2023-05-07T00:50:24;9.20;77.10
4406;DHT22;2216;53.806;11.598;2023-05-07T00:52:50;9.20;77.30
4406;DHT22;2216;53.806;11.598;2023-05-07T00:55:16;9.20;77.10
4406;DHT22;2216;53.806;11.598;2023-05-07T00:57:42;9.20;77.10
4406;DHT22;2216;53.806;11.598;2023-05-07T01:00:09;9.20;77.00
4406;DHT22;2216;53.806;11.598;2023-05-07T01:02:35;9.10;76.80
4406;DHT22;2216;53.806;11.598;2023-05-07T01:05:03;9.20;76.90
4406;DHT22;2216;53.806;11.598;2023-05-07T01:07:32;9.40;77.00
4406;DHT22;2216;53.806;11.598;2023-05-07T01:09:58;9.20;77.70
4406;DHT22;2216;53.806;11.598;2023-05-07T01:12:25;9.20;77.00
4406;DHT22;2216;53.806;11.598;2023-05-07T01:14:53;9.20;76.90
4406;DHT22;2216;53.806;11.598;2023-05-07T01:17:19;9.20;77.10
4406;DHT22;2216;53.806;11.598;2023-05-07T01:19:44;9.20;76.80
4406;DHT22;2216;53.806;11.598;2023-05-07T01:22:11;9.20;76.80
4406;DHT22;2216;53.806;11.598;2023-05-07T01:24:37;9.20;76.80
4406;DHT22;2216;53.806;11.598;2023-05-07T01:27:03;9.20;76.60
4406;DHT22;2216;53.806;11.598;2023-05-07T01:29:29;9.20;76.80
4406;DHT22;2216;53.806;11.598;2023-05-07T01:32:00;9.20;76.80
4406;DHT22;2216;53.806;11.598;2023-05-07T01:34:28;9.10;76.80
4406;DHT22;2216;53.806;11.598;2023-05-07T01:36:56;9.20;76.60
4406;DHT22;2216;53.806;11.598;2023-05-07T01:39:29;9.20;76.60
4406;DHT22;2216;53.806;11.598;2023-05-07T01:41:55;9.20;76.50
4406;DHT22;2216;53.806;11.598;2023-05-07T01:44:22;9.20;76.50
4406;DHT22;2216;53.806;11.598;2023-05-07T01:46:48;9.20;76.50
4406;DHT22;2216;53.806;11.598;2023-05-07T01:49:15;9.20;76.50
4406;DHT22;2216;53.806;11.598;2023-05-07T01:51:42;9.20;76.50
4406;DHT22;2216;53.806;11.598;2023-05-07T01:54:08;9.20;76.50
4406;DHT22;2216;53.806;11.598;2023-05-07T01:56:34;9.20;76.50
4406;DHT22;2216;53.806;11.598;2023-05-07T01:59:00;9.20;77.20
4406;DHT22;2216;53.806;11.598;2023-05-07T02:01:26;9.20;76.60
4406;DHT22;2216;53.806;11.598;2023-05-07T02:03:51;9.20;76.50
4406;DHT22;2216;53.806;11.598;2023-05-07T02:06:17;9.20;76.50
4406;DHT22;2216;53.806;11.598;2023-05-07T02:08:43;9.20;76.50
4406;DHT22;2216;53.806;11.598;2023-05-07T02:11:08;9.20;76.40
4406;DHT22;2216;53.806;11.598;2023-05-07T02:13:34;9.20;76.50
4406;DHT22;2216;53.806;11.598;2023-05-07T02:16:00;9.20;76.60
4406;DHT22;2216;53.806;11.598;2023-05-07T02:18:27;9.20;76.40
4406;DHT22;2216;53.806;11.598;2023-05-07T02:20:53;9.10;76.40
4406;DHT22;2216;53.806;11.598;2023-05-07T02:23:18;9.10;76.30
4406;DHT22;2216;53.806;11.598;2023-05-07T02:25:44;9.20;76.50
4406;DHT22;2216;53.806;11.598;2023-05-07T02:28:11;9.20;76.70
4406;DHT22;2216;53.806;11.598;2023-05-07T02:30:38;9.10;76.40
4406;DHT22;2216;53.806;11.598;2023-05-07T02:33:03;9.20;76.60
4406;DHT22;2216;53.806;11.598;2023-05-07T02:35:29;9.20;76.70
4406;DHT22;2216;53.806;11.598;2023-05-07T02:37:55;9.10;77.00
4406;DHT22;2216;53.806;11.598;2023-05-07T02:40:21;9.10;77.30
4406;DHT22;2216;53.806;11.598;2023-05-07T02:42:46;9.20;77.00
4406;DHT22;2216;53.806;11.598;2023-05-07T02:45:12;9.10;77.00
4406;DHT22;2216;53.806;11.598;2023-05-07T02:47:37;9.10;76.70
4406;DHT22;2216;53.806;11.598;2023-05-07T02:50:03;9.10;76.80
4406;DHT22;2216;53.806;11.598;2023-05-07T02:52:30;9.10;76.90
4406;DHT22;2216;53.806;11.598;2023-05-07T02:54:55;9.10;76.70
4406;DHT22;2216;53.806;11.598;2023-05-07T02:57:21;9.10;76.90
4406;DHT22;2216;53.806;11.598;2023-05-07T02:59:47;9.10;76.90
4406;DHT22;2216;53.806;11.598;2023-05-07T03:02:12;9.10;76.50
4406;DHT22;2216;53.806;11.598;2023-05-07T03:04:39;9.10;76.50
4406;DHT22;2216;53.806;11.598;2023-05-07T03:07:05;9.10;76.40
4406;DHT22;2216;53.806;11.598;2023-05-07T03:09:31;9.10;76.50
4406;DHT22;2216;53.806;11.598;2023-05-07T03:11:57;9.10;76.70
4406;DHT22;2216;53.806;11.598;2023-05-07T03:14:22;9.10;76.60
4406;DHT22;2216;53.806;11.598;2023-05-07T03:16:49;9.10;76.60
4406;DHT22;2216;53.806;11.598;2023-05-07T03:19:15;9.10;76.90
4406;DHT22;2216;53.806;11.598;2023-05-07T03:21:41;9.10;76.80
4406;DHT22;2216;53.806;11.598;2023-05-07T03:24:07;9.10;76.80
4406;DHT22;2216;53.806;11.598;2023-05-07T03:26:32;9.10;76.50
4406;DHT22;2216;53.806;11.598;2023-05-07T03:28:58;9.10;76.50
4406;DHT22;2216;53.806;11.598;2023-05-07T03:31:24;9.10;76.60
4406;DHT22;2216;53.806;11.598;2023-05-07T03:33:52;9.10;76.50
4406;DHT22;2216;53.806;11.598;2023-05-07T03:36:22;9.10;76.30
4406;DHT22;2216;53.806;11.598;2023-05-07T03:38:48;9.10;76.60
4406;DHT22;2216;53.806;11.598;2023-05-07T03:41:15;9.10;76.40
4406;DHT22;2216;53.806;11.598;2023-05-07T03:43:41;9.10;76.50
4406;DHT22;2216;53.806;11.598;2023-05-07T03:46:06;9.00;76.30
4406;DHT22;2216;53.806;11.598;2023-05-07T03:48:32;9.10;76.50
4406;DHT22;2216;53.806;11.598;2023-05-07T03:50:58;9.00;76.60
4406;DHT22;2216;53.806;11.598;2023-05-07T03:53:24;9.10;76.70
4406;DHT22;2216;53.806;11.598;2023-05-07T03:55:50;9.10;76.60
4406;DHT22;2216;53.806;11.598;2023-05-07T03:58:16;9.00;77.00
4406;DHT22;2216;53.806;11.598;2023-05-07T04:00:42;9.00;76.50
4406;DHT22;2216;53.806;11.598;2023-05-07T04:03:08;9.00;76.40
4406;DHT22;2216;53.806;11.598;2023-05-07T04:05:33;9.10;76.50
4406;DHT22;2216;53.806;11.598;2023-05-07T04:08:00;9.10;76.40
4406;DHT22;2216;53.806;11.598;2023-05-07T04:10:26;9.10;76.40
4406;DHT22;2216;53.806;11.598;2023-05-07T04:12:53;9.00;76.40
4406;DHT22;2216;53.806;11.598;2023-05-07T04:15:19;9.00;76.40
4406;DHT22;2216;53.806;11.598;2023-05-07T04:17:45;9.10;76.50
4406;DHT22;2216;53.806;11.598;2023-05-07T04:20:14;9.00;76.70
4406;DHT22;2216;53.806;11.598;2023-05-07T04:22:41;9.10;76.70
4406;DHT22;2216;53.806;11.598;2023-05-07T04:25:08;9.10;76.70
4406;DHT22;2216;53.806;11.598;2023-05-07T04:27:35;9.00;76.40
4406;DHT22;2216;53.806;11.598;2023-05-07T04:30:01;9.10;76.50
4406;DHT22;2216;53.806;11.598;2023-05-07T04:32:28;9.10;76.60
4406;DHT22;2216;53.806;11.598;2023-05-07T04:34:58;9.00;76.50
4406;DHT22;2216;53.806;11.598;2023-05-07T04:37:24;9.10;76.60
4406;DHT22;2216;53.806;11.598;2023-05-07T04:39:51;9.10;77.20
4406;DHT22;2216;53.806;11.598;2023-05-07T04:42:17;9.10;76.70
4406;DHT22;2216;53.806;11.598;2023-05-07T04:44:44;9.10;76.90
4406;DHT22;2216;53.806;11.598;2023-05-07T04:47:11;9.10;76.50
4406;DHT22;2216;53.806;11.598;2023-05-07T04:49:38;9.10;76.50
4406;DHT22;2216;53.806;11.598;2023-05-07T04:52:04;9.10;76.60
4406;DHT22;2216;53.806;11.598;2023-05-07T04:54:30;9.10;76.60
4406;DHT22;2216;53.806;11.598;2023-05-07T04:56:56;9.10;76.90
4406;DHT22;2216;53.806;11.598;2023-05-07T04:59:21;9.10;76.80
4406;DHT22;2216;53.806;11.598;2023-05-07T05:01:47;9.10;76.70
4406;DHT22;2216;53.806;11.598;2023-05-07T05:04:13;9.20;76.80
4406;DHT22;2216;53.806;11.598;2023-05-07T05:06:39;9.10;76.90
4406;DHT22;2216;53.806;11.598;2023-05-07T05:09:06;9.20;76.80
4406;DHT22;2216;53.806;11.598;2023-05-07T05:11:32;9.20;76.80
4406;DHT22;2216;53.806;11.598;2023-05-07T05:13:59;9.20;76.70
4406;DHT22;2216;53.806;11.598;2023-05-07T05:16:26;9.20;76.80
4406;DHT22;2216;53.806;11.598;2023-05-07T05:18:51;9.20;77.00
4406;DHT22;2216;53.806;11.598;2023-05-07T05:21:17;9.30;76.90
4406;DHT22;2216;53.806;11.598;2023-05-07T05:23:43;9.30;76.90
4406;DHT22;2216;53.806;11.598;2023-05-07T05:26:09;9.30;76.90
4406;DHT22;2216;53.806;11.598;2023-05-07T05:28:34;9.30;76.60
4406;DHT22;2216;53.806;11.598;2023-05-07T05:31:00;9.30;76.60
4406;DHT22;2216;53.806;11.598;2023-05-07T05:33:26;9.30;76.70
4406;DHT22;2216;53.806;11.598;2023-05-07T05:35:53;9.40;76.70
4406;DHT22;2216;53.806;11.598;2023-05-07T05:38:19;9.40;76.70
4406;DHT22;2216;53.806;11.598;2023-05-07T05:40:46;9.40;76.90
4406;DHT22;2216;53.806;11.598;2023-05-07T05:43:12;9.50;76.70
4406;DHT22;2216;53.806;11.598;2023-05-07T05:45:38;9.50;77.10
4406;DHT22;2216;53.806;11.598;2023-05-07T05:48:04;9.50;76.70
4406;DHT22;2216;53.806;11.598;2023-05-07T05:50:30;9.60;76.70
4406;DHT22;2216;53.806;11.598;2023-05-07T05:52:55;9.60;76.80
4406;DHT22;2216;53.806;11.598;2023-05-07T05:55:21;9.60;76.70
4406;DHT22;2216;53.806;11.598;2023-05-07T05:57:47;9.70;77.00
4406;DHT22;2216;53.806;11.598;2023-05-07T06:00:13;9.70;76.90
4406;DHT22;2216;53.806;11.598;2023-05-07T06:02:39;9.80;76.80
4406;DHT22;2216;53.806;11.598;2023-05-07T06:05:05;9.80;77.60
4406;DHT22;2216;53.806;11.598;2023-05-07T06:07:31;9.90;76.90
4406;DHT22;2216;53.806;11.598;2023-05-07T06:09:57;10.00;77.10
4406;DHT22;2216;53.806;11.598;2023-05-07T06:12:22;10.10;77.30
4406;DHT22;2216;53.806;11.598;2023-05-07T06:14:48;10.20;77.40
4406;DHT22;2216;53.806;11.598;2023-05-07T06:17:13;10.30;77.30
4406;DHT22;2216;53.806;11.598;2023-05-07T06:19:39;10.40;77.00
4406;DHT22;2216;53.806;11.598;2023-05-07T06:22:05;10.40;76.80
4406;DHT22;2216;53.806;11.598;2023-05-07T06:24:30;10.50;76.50
4406;DHT22;2216;53.806;11.598;2023-05-07T06:26:56;10.50;76.30
4406;DHT22;2216;53.806;11.598;2023-05-07T06:29:23;10.50;76.20
4406;DHT22;2216;53.806;11.598;2023-05-07T06:31:52;10.60;76.40
4406;DHT22;2216;53.806;11.598;2023-05-07T06:34:18;10.70;76.60
4406;DHT22;2216;53.806;11.598;2023-05-07T06:36:43;10.70;76.90
4406;DHT22;2216;53.806;11.598;2023-05-07T06:39:09;10.90;77.10
4406;DHT22;2216;53.806;11.598;2023-05-07T06:41:35;11.00;77.20
4406;DHT22;2216;53.806;11.598;2023-05-07T06:44:02;11.10;77.10
4406;DHT22;2216;53.806;11.598;2023-05-07T06:46:28;11.30;77.00
4406;DHT22;2216;53.806;11.598;2023-05-07T06:48:54;11.40;76.40
4406;DHT22;2216;53.806;11.598;2023-05-07T06:51:22;11.40;75.90
4406;DHT22;2216;53.806;11.598;2023-05-07T06:53:48;11.40;75.50
4406;DHT22;2216;53.806;11.598;2023-05-07T06:56:13;11.40;75.50
4406;DHT22;2216;53.806;11.598;2023-05-07T06:58:39;11.40;75.70
4406;DHT22;2216;53.806;11.598;2023-05-07T07:01:04;11.50;76.20
4406;DHT22;2216;53.806;11.598;2023-05-07T07:03:30;11.60;76.60
4406;DHT22;2216;53.806;11.598;2023-05-07T07:05:56;11.70;76.40
4406;DHT22;2216;53.806;11.598;2023-05-07T07:08:22;11.90;76.30
4406;DHT22;2216;53.806;11.598;2023-05-07T07:10:48;11.90;76.10
4406;DHT22;2216;53.806;11.598;2023-05-07T07:13:13;12.10;75.80
4406;DHT22;2216;53.806;11.598;2023-05-07T07:15:39;12.20;75.80
4406;DHT22;2216;53.806;11.598;2023-05-07T07:18:06;12.30;76.00
4406;DHT22;2216;53.806;11.598;2023-05-07T07:20:31;12.40;75.80
4406;DHT22;2216;53.806;11.598;2023-05-07T07:22:57;12.60;75.70
4406;DHT22;2216;53.806;11.598;2023-05-07T07:25:23;12.70;75.10
4406;DHT22;2216;53.806;11.598;2023-05-07T07:27:49;13.10;74.90
4406;DHT22;2216;53.806;11.598;2023-05-07T07:30:15;12.80;73.90
4406;DHT22;2216;53.806;11.598;2023-05-07T07:32:41;12.90;73.90
4406;DHT22;2216;53.806;11.598;2023-05-07T07:35:07;13.00;74.20
4406;DHT22;2216;53.806;11.598;2023-05-07T07:37:33;13.00;74.70
4406;DHT22;2216;53.806;11.598;2023-05-07T07:39:59;13.10;74.10
4406;DHT22;2216;53.806;11.598;2023-05-07T07:42:25;13.10;74.10
4406;DHT22;2216;53.806;11.598;2023-05-07T07:44:50;13.20;74.40
4406;DHT22;2216;53.806;11.598;2023-05-07T07:47:16;13.30;74.40
4406;DHT22;2216;53.806;11.598;2023-05-07T07:49:42;13.30;74.30
4406;DHT22;2216;53.806;11.598;2023-05-07T07:52:07;13.40;74.30
4406;DHT22;2216;53.806;11.598;2023-05-07T07:54:33;13.50;72.80
4406;DHT22;2216;53.806;11.598;2023-05-07T07:56:59;13.50;72.50
4406;DHT22;2216;53.806;11.598;2023-05-07T07:59:24;13.50;72.40
4406;DHT22;2216;53.806;11.598;2023-05-07T08:01:50;13.60;72.40
4406;DHT22;2216;53.806;11.598;2023-05-07T08:04:17;13.60;72.10
4406;DHT22;2216;53.806;11.598;2023-05-07T08:06:43;13.60;72.30
4406;DHT22;2216;53.806;11.598;2023-05-07T08:09:08;13.70;72.70
4406;DHT22;2216;53.806;11.598;2023-05-07T08:11:34;13.80;72.40
4406;DHT22;2216;53.806;11.598;2023-05-07T08:14:00;13.90;71.90
4406;DHT22;2216;53.806;11.598;2023-05-07T08:16:26;13.90;72.70
4406;DHT22;2216;53.806;11.598;2023-05-07T08:18:52;14.00;72.50
4406;DHT22;2216;53.806;11.598;2023-05-07T08:21:18;14.20;72.30
4406;DHT22;2216;53.806;11.598;2023-05-07T08:23:43;14.20;72.60
4406;DHT22;2216;53.806;11.598;2023-05-07T08:26:09;14.40;72.50
4406;DHT22;2216;53.806;11.598;2023-05-07T08:28:35;14.50;72.30
4406;DHT22;2216;53.806;11.598;2023-05-07T08:31:01;14.60;71.90
4406;DHT22;2216;53.806;11.598;2023-05-07T08:33:27;14.70;72.50
4406;DHT22;2216;53.806;11.598;2023-05-07T08:35:52;14.80;71.30
4406;DHT22;2216;53.806;11.598;2023-05-07T08:38:18;14.90;71.80
4406;DHT22;2216;53.806;11.598;2023-05-07T08:40:44;15.00;72.10
4406;DHT22;2216;53.806;11.598;2023-05-07T08:43:12;15.20;72.20
4406;DHT22;2216;53.806;11.598;2023-05-07T08:45:40;15.30;72.50
4406;DHT22;2216;53.806;11.598;2023-05-07T08:48:09;15.50;72.70
4406;DHT22;2216;53.806;11.598;2023-05-07T08:50:40;15.60;71.00
4406;DHT22;2216;53.806;11.598;2023-05-07T08:53:06;15.70;71.30
4406;DHT22;2216;53.806;11.598;2023-05-07T08:55:31;15.80;70.80
4406;DHT22;2216;53.806;11.598;2023-05-07T08:57:59;15.90;71.00
4406;DHT22;2216;53.806;11.598;2023-05-07T09:00:25;16.00;70.40
4406;DHT22;2216;53.806;11.598;2023-05-07T09:02:53;16.10;70.30
4406;DHT22;2216;53.806;11.598;2023-05-07T09:05:19;16.10;70.10
4406;DHT22;2216;53.806;11.598;2023-05-07T09:07:45;16.20;68.90
4406;DHT22;2216;53.806;11.598;2023-05-07T09:10:11;16.30;68.30
4406;DHT22;2216;53.806;11.598;2023-05-07T09:12:37;16.30;68.90
4406;DHT22;2216;53.806;11.598;2023-05-07T09:15:05;16.40;68.90
4406;DHT22;2216;53.806;11.598;2023-05-07T09:17:31;16.40;68.70
4406;DHT22;2216;53.806;11.598;2023-05-07T09:20:02;16.50;68.70
4406;DHT22;2216;53.806;11.598;2023-05-07T09:22:32;16.60;69.20
4406;DHT22;2216;53.806;11.598;2023-05-07T09:24:58;16.70;69.40
4406;DHT22;2216;53.806;11.598;2023-05-07T09:27:25;16.80;69.50
4406;DHT22;2216;53.806;11.598;2023-05-07T09:29:51;16.80;69.10
4406;DHT22;2216;53.806;11.598;2023-05-07T09:32:16;17.00;69.60
4406;DHT22;2216;53.806;11.598;2023-05-07T09:34:42;17.10;69.70
4406;DHT22;2216;53.806;11.598;2023-05-07T09:37:08;17.20;69.20
4406;DHT22;2216;53.806;11.598;2023-05-07T09:39:44;17.30;67.90
4406;DHT22;2216;53.806;11.598;2023-05-07T09:42:11;17.40;68.70
4406;DHT22;2216;53.806;11.598;2023-05-07T09:44:38;17.50;68.70
4406;DHT22;2216;53.806;11.598;2023-05-07T09:47:07;17.60;68.70
4406;DHT22;2216;53.806;11.598;2023-05-07T09:49:35;17.60;68.00
4406;DHT22;2216;53.806;11.598;2023-05-07T09:52:03;17.70;68.80
4406;DHT22;2216;53.806;11.598;2023-05-07T09:54:32;17.80;68.50
4406;DHT22;2216;53.806;11.598;2023-05-07T09:57:01;17.90;67.60
4406;DHT22;2216;53.806;11.598;2023-05-07T09:59:29;17.90;66.30
4406;DHT22;2216;53.806;11.598;2023-05-07T10:01:57;17.80;66.10
4406;DHT22;2216;53.806;11.598;2023-05-07T10:04:25;17.80;65.20
4406;DHT22;2216;53.806;11.598;2023-05-07T10:06:52;17.70;66.10
4406;DHT22;2216;53.806;11.598;2023-05-07T10:09:19;17.70;66.90
4406;DHT22;2216;53.806;11.598;2023-05-07T10:11:45;17.60;65.80
4406;DHT22;2216;53.806;11.598;2023-05-07T10:14:11;17.60;65.80
4406;DHT22;2216;53.806;11.598;2023-05-07T10:16:37;17.50;65.90
4406;DHT22;2216;53.806;11.598;2023-05-07T10:19:04;17.50;66.20
4406;DHT22;2216;53.806;11.598;2023-05-07T10:21:30;17.60;65.90
4406;DHT22;2216;53.806;11.598;2023-05-07T10:24:05;17.60;66.70
4406;DHT22;2216;53.806;11.598;2023-05-07T10:26:42;17.80;65.80
4406;DHT22;2216;53.806;11.598;2023-05-07T10:29:17;17.70;65.60
4406;DHT22;2216;53.806;11.598;2023-05-07T10:32:12;17.70;65.00
4406;DHT22;2216;53.806;11.598;2023-05-07T10:34:47;17.70;64.70
4406;DHT22;2216;53.806;11.598;2023-05-07T10:37:14;17.60;64.10
4406;DHT22;2216;53.806;11.598;2023-05-07T10:39:41;17.60;66.10
4406;DHT22;2216;53.806;11.598;2023-05-07T10:42:11;17.70;65.80
4406;DHT22;2216;53.806;11.598;2023-05-07T10:44:37;17.80;66.10
4406;DHT22;2216;53.806;11.598;2023-05-07T10:47:11;17.90;66.00
4406;DHT22;2216;53.806;11.598;2023-05-07T10:52:23;18.10;65.30
4406;DHT22;2216;53.806;11.598;2023-05-07T10:57:44;18.30;62.60
4406;DHT22;2216;53.806;11.598;2023-05-07T11:00:40;18.20;63.70
4406;DHT22;2216;53.806;11.598;2023-05-07T11:03:07;18.30;64.90
4406;DHT22;2216;53.806;11.598;2023-05-07T11:05:33;18.40;64.40
4406;DHT22;2216;53.806;11.598;2023-05-07T11:08:01;18.40;64.10
4406;DHT22;2216;53.806;11.598;2023-05-07T11:10:53;18.40;64.10
4406;DHT22;2216;53.806;11.598;2023-05-07T11:13:46;18.40;62.70
4406;DHT22;2216;53.806;11.598;2023-05-07T11:16:39;18.30;62.00
4406;DHT22;2216;53.806;11.598;2023-05-07T11:19:05;18.20;61.10
4406;DHT22;2216;53.806;11.598;2023-05-07T11:21:39;18.20;63.00
4406;DHT22;2216;53.806;11.598;2023-05-07T11:24:07;18.20;63.20
4406;DHT22;2216;53.806;11.598;2023-05-07T11:26:49;18.10;63.00
4406;DHT22;2216;53.806;11.598;2023-05-07T11:29:20;18.10;61.60
4406;DHT22;2216;53.806;11.598;2023-05-07T11:31:53;18.10;61.50
4406;DHT22;2216;53.806;11.598;2023-05-07T11:34:24;18.00;62.90
4406;DHT22;2216;53.806;11.598;2023-05-07T11:36:51;18.00;62.10
4406;DHT22;2216;53.806;11.598;2023-05-07T11:39:31;18.00;62.20
4406;DHT22;2216;53.806;11.598;2023-05-07T11:41:59;18.00;63.40
4406;DHT22;2216;53.806;11.598;2023-05-07T11:44:25;18.10;64.10
4406;DHT22;2216;53.806;11.598;2023-05-07T11:47:12;18.20;63.30
4406;DHT22;2216;53.806;11.598;2023-05-07T11:49:42;18.30;63.30
4406;DHT22;2216;53.806;11.598;2023-05-07T11:52:09;18.50;64.00
4406;DHT22;2216;53.806;11.598;2023-05-07T11:54:36;18.50;63.40
4406;DHT22;2216;53.806;11.598;2023-05-07T11:57:02;18.70;61.20
4406;DHT22;2216;53.806;11.598;2023-05-07T11:59:28;18.70;62.70
4406;DHT22;2216;53.806;11.598;2023-05-07T12:01:57;18.80;62.00
4406;DHT22;2216;53.806;11.598;2023-05-07T12:04:24;18.90;61.10
4406;DHT22;2216;53.806;11.598;2023-05-07T12:06:54;19.10;61.10
4406;DHT22;2216;53.806;11.598;2023-05-07T12:09:21;19.20;61.50
4406;DHT22;2216;53.806;11.598;2023-05-07T12:11:46;19.30;60.20
4406;DHT22;2216;53.806;11.598;2023-05-07T12:14:12;19.30;61.40
4406;DHT22;2216;53.806;11.598;2023-05-07T12:16:40;19.50;61.30
4406;DHT22;2216;53.806;11.598;2023-05-07T12:19:06;19.50;60.40
4406;DHT22;2216;53.806;11.598;2023-05-07T12:21:34;19.60;60.50
4406;DHT22;2216;53.806;11.598;2023-05-07T12:23:59;19.60;59.90
4406;DHT22;2216;53.806;11.598;2023-05-07T12:26:25;19.70;59.70
4406;DHT22;2216;53.806;11.598;2023-05-07T12:28:51;19.70;60.00
4406;DHT22;2216;53.806;11.598;2023-05-07T12:31:17;19.70;60.30
4406;DHT22;2216;53.806;11.598;2023-05-07T12:33:43;19.70;59.50
4406;DHT22;2216;53.806;11.598;2023-05-07T12:36:09;19.70;59.70
4406;DHT22;2216;53.806;11.598;2023-05-07T12:38:38;19.70;58.60
4406;DHT22;2216;53.806;11.598;2023-05-07T12:41:05;19.70;59.90
4406;DHT22;2216;53.806;11.598;2023-05-07T12:43:32;19.80;59.90
4406;DHT22;2216;53.806;11.598;2023-05-07T12:46:00;19.80;60.10
4406;DHT22;2216;53.806;11.598;2023-05-07T12:48:29;19.90;59.40
4406;DHT22;2216;53.806;11.598;2023-05-07T12:50:55;19.90;59.10
4406;DHT22;2216;53.806;11.598;2023-05-07T12:53:23;19.90;59.20
4406;DHT22;2216;53.806;11.598;2023-05-07T12:55:53;19.90;57.80
4406;DHT22;2216;53.806;11.598;2023-05-07T12:58:22;19.90;58.60
4406;DHT22;2216;53.806;11.598;2023-05-07T13:00:51;20.00;57.90
4406;DHT22;2216;53.806;11.598;2023-05-07T13:03:24;19.90;57.40
4406;DHT22;2216;53.806;11.598;2023-05-07T13:05:55;20.00;57.70
4406;DHT22;2216;53.806;11.598;2023-05-07T13:08:24;19.90;57.80
4406;DHT22;2216;53.806;11.598;2023-05-07T13:10:51;19.90;57.90
4406;DHT22;2216;53.806;11.598;2023-05-07T13:13:17;19.80;57.60
4406;DHT22;2216;53.806;11.598;2023-05-07T13:15:43;19.70;58.00
4406;DHT22;2216;53.806;11.598;2023-05-07T13:18:09;19.70;58.40
4406;DHT22;2216;53.806;11.598;2023-05-07T13:20:36;19.70;57.50
4406;DHT22;2216;53.806;11.598;2023-05-07T13:23:02;19.70;59.00
4406;DHT22;2216;53.806;11.598;2023-05-07T13:25:30;19.70;57.80
4406;DHT22;2216;53.806;11.598;2023-05-07T13:27:57;19.70;57.10
4406;DHT22;2216;53.806;11.598;2023-05-07T13:30:23;19.70;57.20
4406;DHT22;2216;53.806;11.598;2023-05-07T13:32:48;19.70;57.30
4406;DHT22;2216;53.806;11.598;2023-05-07T13:35:16;19.70;57.20
4406;DHT22;2216;53.806;11.598;2023-05-07T13:37:41;19.70;56.40
4406;DHT22;2216;53.806;11.598;2023-05-07T13:40:08;19.70;57.30
4406;DHT22;2216;53.806;11.598;2023-05-07T13:42:33;19.60;58.20
4406;DHT22;2216;53.806;11.598;2023-05-07T13:44:59;19.70;57.80
4406;DHT22;2216;53.806;11.598;2023-05-07T13:47:25;19.60;56.60
4406;DHT22;2216;53.806;11.598;2023-05-07T13:49:51;19.60;57.90
4406;DHT22;2216;53.806;11.598;2023-05-07T13:52:17;19.60;57.80
4406;DHT22;2216;53.806;11.598;2023-05-07T13:54:43;19.50;57.70
4406;DHT22;2216;53.806;11.598;2023-05-07T13:57:08;19.50;57.10
4406;DHT22;2216;53.806;11.598;2023-05-07T13:59:34;19.50;57.90
4406;DHT22;2216;53.806;11.598;2023-05-07T14:02:00;19.40;57.50
4406;DHT22;2216;53.806;11.598;2023-05-07T14:04:26;19.40;57.30
4406;DHT22;2216;53.806;11.598;2023-05-07T14:06:51;19.40;57.60
4406;DHT22;2216;53.806;11.598;2023-05-07T14:09:17;19.40;57.30
4406;DHT22;2216;53.806;11.598;2023-05-07T14:11:42;19.40;57.00
4406;DHT22;2216;53.806;11.598;2023-05-07T14:14:08;19.30;57.80
4406;DHT22;2216;53.806;11.598;2023-05-07T14:16:37;19.30;57.10
4406;DHT22;2216;53.806;11.598;2023-05-07T14:19:03;19.30;57.60
4406;DHT22;2216;53.806;11.598;2023-05-07T14:21:28;19.30;57.20
4406;DHT22;2216;53.806;11.598;2023-05-07T14:23:55;19.20;56.70
4406;DHT22;2216;53.806;11.598;2023-05-07T14:26:21;19.20;57.20
4406;DHT22;2216;53.806;11.598;2023-05-07T14:28:48;19.10;57.20
4406;DHT22;2216;53.806;11.598;2023-05-07T14:31:14;19.20;57.30
4406;DHT22;2216;53.806;11.598;2023-05-07T14:33:40;19.20;57.30
4406;DHT22;2216;53.806;11.598;2023-05-07T14:36:06;19.30;57.50
4406;DHT22;2216;53.806;11.598;2023-05-07T14:38:32;19.20;56.60
4406;DHT22;2216;53.806;11.598;2023-05-07T14:40:58;19.20;57.70
4406;DHT22;2216;53.806;11.598;2023-05-07T14:43:24;19.30;57.10
4406;DHT22;2216;53.806;11.598;2023-05-07T14:45:49;19.30;56.30
4406;DHT22;2216;53.806;11.598;2023-05-07T14:48:15;19.30;56.70
4406;DHT22;2216;53.806;11.598;2023-05-07T14:50:41;19.20;56.60
4406;DHT22;2216;53.806;11.598;2023-05-07T14:53:07;19.20;56.70
4406;DHT22;2216;53.806;11.598;2023-05-07T14:55:34;19.30;56.90
4406;DHT22;2216;53.806;11.598;2023-05-07T14:58:00;19.20;56.60
4406;DHT22;2216;53.806;11.598;2023-05-07T15:00:26;19.20;56.60
4406;DHT22;2216;53.806;11.598;2023-05-07T15:02:52;19.20;57.00
4406;DHT22;2216;53.806;11.598;2023-05-07T15:05:17;19.20;56.60
4406;DHT22;2216;53.806;11.598;2023-05-07T15:07:44;19.20;56.50
4406;DHT22;2216;53.806;11.598;2023-05-07T15:10:10;19.20;57.20
4406;DHT22;2216;53.806;11.598;2023-05-07T15:12:36;19.20;56.40
4406;DHT22;2216;53.806;11.598;2023-05-07T15:15:02;19.20;56.30
4406;DHT22;2216;53.806;11.598;2023-05-07T15:17:28;19.20;56.80
4406;DHT22;2216;53.806;11.598;2023-05-07T15:19:53;19.20;55.30
4406;DHT22;2216;53.806;11.598;2023-05-07T15:22:19;19.20;56.60
4406;DHT22;2216;53.806;11.598;2023-05-07T15:24:46;19.10;55.60
4406;DHT22;2216;53.806;11.598;2023-05-07T15:27:12;19.00;55.80
4406;DHT22;2216;53.806;11.598;2023-05-07T15:29:38;19.00;55.90
4406;DHT22;2216;53.806;11.598;2023-05-07T15:32:03;19.00;55.40
4406;DHT22;2216;53.806;11.598;2023-05-07T15:34:29;18.90;56.10
4406;DHT22;2216;53.806;11.598;2023-05-07T15:36:56;18.90;55.80
4406;DHT22;2216;53.806;11.598;2023-05-07T15:39:24;18.90;56.40
4406;DHT22;2216;53.806;11.598;2023-05-07T15:41:50;18.90;56.30
4406;DHT22;2216;53.806;11.598;2023-05-07T15:44:15;18.90;56.60
4406;DHT22;2216;53.806;11.598;2023-05-07T15:46:41;18.90;56.20
4406;DHT22;2216;53.806;11.598;2023-05-07T15:49:07;18.90;55.80
4406;DHT22;2216;53.806;11.598;2023-05-07T15:51:34;18.80;55.70
4406;DHT22;2216;53.806;11.598;2023-05-07T15:54:00;18.70;55.50
4406;DHT22;2216;53.806;11.598;2023-05-07T15:56:25;18.80;56.00